Time;durP1;ratioP1;P1;durP2;ratioP2;P2;SDS_P1;SDS_P2;PMS_P1;PMS_P2;Temp;Humidity;BMP_temperature;BMP_pressure;BME280_temperature;BME280_humidity;BME280_pressure;Samples;Min_cycle;Max_cycle;Signal;HPM_P1;HPM_P2
2023/04/26 00:01:59;;;;;;;0.75;0.30;;;;;;;6.11;67.84;102078.09;4977361;28;96648;-31
2023/04/26 00:04:27;;;;;;;0.55;0.30;;;;;;;6.17;68.14;102088.72;4975590;28;96888;-30
2023/04/26 00:06:53;;;;;;;0.73;0.40;;;;;;;6.14;68.24;102094.16;4975539;28;101182;-31
2023/04/26 00:09:19;;;;;;;0.25;0.15;;;;;;;6.10;68.58;102089.78;4975279;28;100994;-30
2023/04/26 00:11:44;;;;;;;3.22;0.45;;;;;;;6.06;68.39;102083.59;4977314;28;96456;-30
2023/04/26 00:14:10;;;;;;;2.50;0.40;;;;;;;6.07;69.41;102081.78;4977528;28;96764;-31
2023/04/26 00:16:35;;;;;;;0.45;0.43;;;;;;;6.07;68.42;102076.41;4976645;28;97963;-30
2023/04/26 00:19:01;;;;;;;2.70;0.47;;;;;;;6.04;69.30;102077.34;4976384;28;99238;-30
2023/04/26 00:21:27;;;;;;;0.40;0.40;;;;;;;6.04;70.26;102080.06;4975227;28;96652;-30
2023/04/26 00:23:53;;;;;;;0.65;0.32;;;;;;;6.05;69.59;102064.78;4976139;28;96795;-30
2023/04/26 00:26:18;;;;;;;0.22;0.20;;;;;;;6.06;69.77;102075.53;4976336;28;99303;-30
2023/04/26 00:28:44;;;;;;;0.60;0.10;;;;;;;6.02;70.18;102076.50;4976545;28;97355;-30
2023/04/26 00:31:18;;;;;;;0.55;0.30;;;;;;;5.97;71.78;102075.72;4976810;28;96858;-30
2023/04/26 00:33:44;;;;;;;0.10;0.10;;;;;;;5.91;71.34;102081.19;4974707;28;96792;-31
2023/04/26 00:36:09;;;;;;;1.73;0.55;;;;;;;5.88;72.10;102087.53;4975070;28;101438;-30
2023/04/26 00:38:35;;;;;;;0.17;0.17;;;;;;;5.83;72.86;102080.50;4976882;28;97953;-30
2023/04/26 00:41:00;;;;;;;0.82;0.25;;;;;;;5.76;73.03;102079.75;4975393;28;96670;-30
2023/04/26 00:43:26;;;;;;;0.63;0.35;;;;;;;5.71;73.08;102074.47;4976674;28;96737;-32
2023/04/26 00:45:51;;;;;;;2.08;0.32;;;;;;;5.69;73.22;102076.28;4976072;28;97259;-30
2023/04/26 00:48:17;;;;;;;0.63;0.50;;;;;;;5.64;73.00;102083.56;4976209;28;97441;-31
2023/04/26 00:50:43;;;;;;;0.80;0.35;;;;;;;5.61;73.50;102080.09;4976602;28;96629;-30
2023/04/26 00:53:08;;;;;;;2.75;0.47;;;;;;;5.53;73.92;102075.75;4975906;28;96851;-30
2023/04/26 00:55:34;;;;;;;0.52;0.30;;;;;;;5.48;74.33;102080.34;4976250;28;97959;-30
2023/04/26 00:57:59;;;;;;;0.10;0.10;;;;;;;5.45;74.51;102075.00;4976093;28;97795;-30
2023/04/26 01:00:26;;;;;;;0.20;0.20;;;;;;;5.42;74.41;102072.38;4976127;28;96729;-30
2023/04/26 01:02:51;;;;;;;0.38;0.38;;;;;;;5.39;74.87;102082.34;4976346;28;97627;-30
2023/04/26 01:05:17;;;;;;;0.43;0.22;;;;;;;5.37;74.65;102070.72;4975948;28;98111;-29
2023/04/26 01:07:43;;;;;;;1.23;0.32;;;;;;;5.35;74.82;102075.25;4975860;28;97340;-30
2023/04/26 01:10:09;;;;;;;0.20;0.20;;;;;;;5.26;75.38;102081.66;4974454;28;96694;-31
2023/04/26 01:12:36;;;;;;;0.05;0.05;;;;;;;5.19;75.46;102080.03;4976610;28;96780;-31
2023/04/26 01:15:02;;;;;;;0.28;0.28;;;;;;;5.17;75.13;102079.16;4975794;28;97445;-30
2023/04/26 01:17:28;;;;;;;0.20;0.20;;;;;;;5.17;75.42;102077.34;4974295;28;101187;-33
2023/04/26 01:19:54;;;;;;;0.50;0.35;;;;;;;5.09;75.65;102080.19;4976088;28;96619;-31
2023/04/26 01:22:20;;;;;;;0.52;0.28;;;;;;;5.09;75.87;102079.31;4975991;28;96804;-30
2023/04/26 01:24:49;;;;;;;0.57;0.45;;;;;;;5.01;76.90;102083.97;4974204;28;101346;-31
2023/04/26 01:27:15;;;;;;;0.10;0.10;;;;;;;5.01;76.49;102089.31;4975875;28;97845;-31
2023/04/26 01:29:41;;;;;;;1.67;0.70;;;;;;;4.97;76.83;102077.75;4975367;28;96479;-33
2023/04/26 01:32:06;;;;;;;1.98;0.43;;;;;;;4.95;76.84;102076.88;4976068;28;96790;-30
2023/04/26 01:34:33;;;;;;;3.08;0.85;;;;;;;4.88;77.14;102076.09;4973449;28;98128;-30
2023/04/26 01:36:59;;;;;;;1.00;0.70;;;;;;;4.85;77.37;102081.53;4974005;28;101087;-30
2023/04/26 01:39:25;;;;;;;0.25;0.25;;;;;;;4.85;77.04;102088.72;4974521;28;96604;-30
2023/04/26 01:41:50;;;;;;;1.23;0.80;;;;;;;4.82;76.77;102086.09;4975737;28;96759;-30
2023/04/26 01:44:16;;;;;;;0.50;0.38;;;;;;;4.81;77.69;102084.28;4975396;28;97426;-31
2023/04/26 01:46:41;;;;;;;0.75;0.43;;;;;;;4.77;77.03;102077.22;4975078;28;99390;-30
2023/04/26 01:49:06;;;;;;;0.28;0.28;;;;;;;4.75;77.63;102079.94;4975705;28;96558;-33
2023/04/26 01:51:33;;;;;;;0.52;0.40;;;;;;;4.72;77.36;102079.09;4976181;28;96850;-31
2023/04/26 01:53:58;;;;;;;0.55;0.47;;;;;;;4.71;77.11;102082.69;4975163;28;98009;-31
2023/04/26 01:56:24;;;;;;;1.10;0.60;;;;;;;4.66;77.49;102080.09;4975292;28;97865;-31
2023/04/26 01:58:49;;;;;;;1.27;0.65;;;;;;;4.62;77.31;102084.63;4975117;28;96422;-31
2023/04/26 02:01:15;;;;;;;1.05;0.50;;;;;;;4.58;77.88;102088.28;4975107;28;98168;-30
2023/04/26 02:03:40;;;;;;;3.47;0.40;;;;;;;4.56;78.04;102081.16;4975323;28;97822;-30
2023/04/26 02:06:06;;;;;;;0.38;0.38;;;;;;;4.57;78.53;102082.91;4975113;28;98224;-31
2023/04/26 02:08:31;;;;;;;4.38;0.17;;;;;;;4.58;77.53;102082.03;4975123;28;96609;-31
2023/04/26 02:10:57;;;;;;;0.43;0.17;;;;;;;4.54;77.65;102089.22;4975503;28;96834;-32
2023/04/26 02:13:22;;;;;;;0.32;0.30;;;;;;;4.51;78.34;102081.25;4975130;28;97439;-30
2023/04/26 02:15:49;;;;;;;0.30;0.30;;;;;;;4.51;77.71;102081.25;4975060;28;97748;-31
2023/04/26 02:18:15;;;;;;;0.40;0.40;;;;;;;4.47;77.80;102074.16;4973892;28;96647;-30
2023/04/26 02:20:42;;;;;;;0.20;0.20;;;;;;;4.52;78.04;102077.63;4973960;28;96831;-31
2023/04/26 02:23:08;;;;;;;0.45;0.35;;;;;;;4.48;78.10;102081.25;4973102;28;101101;-30
2023/04/26 02:25:33;;;;;;;0.10;0.10;;;;;;;4.47;78.10;102080.38;4973536;28;101047;-31
2023/04/26 02:27:58;;;;;;;0.55;0.30;;;;;;;4.47;77.90;102076.81;4975032;28;96485;-31
2023/04/26 02:30:24;;;;;;;0.32;0.15;;;;;;;4.44;78.16;102075.09;4974963;28;96759;-31
2023/04/26 02:32:52;;;;;;;0.13;0.13;;;;;;;4.46;78.25;102077.75;4974809;28;97575;-31
2023/04/26 02:35:18;;;;;;;0.45;0.30;;;;;;;4.47;77.68;102080.38;4972721;28;100986;-31
2023/04/26 02:37:43;;;;;;;0.60;0.40;;;;;;;4.50;77.91;102076.75;4975141;28;96590;-31
2023/04/26 02:40:09;;;;;;;0.40;0.32;;;;;;;4.50;77.82;102070.53;4975356;28;96733;-31
2023/04/26 02:42:35;;;;;;;0.20;0.20;;;;;;;4.51;78.66;102070.50;4973250;28;100803;-30
2023/04/26 02:45:00;;;;;;;1.38;0.50;;;;;;;4.55;78.30;102066.84;4974635;28;96888;-30
2023/04/26 02:47:25;;;;;;;0.52;0.28;;;;;;;4.57;78.20;102067.69;4980263;28;96708;-31
2023/04/26 02:49:51;;;;;;;0.95;0.80;;;;;;;4.56;79.02;102063.25;4981363;28;96882;-31
2023/04/26 02:52:16;;;;;;;0.20;0.20;;;;;;;4.59;78.65;102057.84;4981040;28;97885;-30
2023/04/26 02:54:42;;;;;;;4.47;0.43;;;;;;;4.60;78.49;102067.66;4981166;28;97831;-32
2023/04/26 02:57:07;;;;;;;0.38;0.35;;;;;;;4.60;79.01;102061.41;4981204;28;96621;-30
2023/04/26 02:59:32;;;;;;;1.42;0.98;;;;;;;4.59;78.80;102057.84;4981218;28;96881;-32
2023/04/26 03:01:58;;;;;;;0.82;0.38;;;;;;;4.61;79.39;102061.38;4980836;28;99841;-30
2023/04/26 03:04:23;;;;;;;1.02;0.63;;;;;;;4.61;79.42;102058.69;4981247;28;99111;-30
2023/04/26 03:06:48;;;;;;;1.00;0.68;;;;;;;4.61;79.27;102061.38;4981064;28;96552;-30
2023/04/26 03:09:14;;;;;;;1.60;0.68;;;;;;;4.55;80.15;102056.09;4981111;28;96823;-31
2023/04/26 03:11:39;;;;;;;0.90;0.80;;;;;;;4.60;79.49;102058.72;4980255;28;99378;-30
2023/04/26 03:14:04;;;;;;;0.95;0.60;;;;;;;4.56;79.11;102057.03;4980563;28;98754;-30
2023/04/26 03:16:30;;;;;;;0.93;0.68;;;;;;;4.56;79.22;102057.03;4981555;28;96576;-30
2023/04/26 03:18:55;;;;;;;0.82;0.45;;;;;;;4.54;79.55;102064.19;4981202;28;96792;-30
2023/04/26 03:21:21;;;;;;;0.77;0.65;;;;;;;4.51;79.31;102054.41;4980875;28;97920;-32
2023/04/26 03:23:46;;;;;;;1.48;0.70;;;;;;;4.50;79.08;102054.41;4980842;28;97957;-30
2023/04/26 03:26:11;;;;;;;0.98;0.75;;;;;;;4.52;79.07;102058.84;4981155;28;96527;-30
2023/04/26 03:28:37;;;;;;;4.75;1.55;;;;;;;4.51;79.97;102059.78;4981428;28;96730;-30
2023/04/26 03:31:02;;;;;;;2.70;1.17;;;;;;;4.50;79.52;102039.19;4980325;28;97772;-31
2023/04/26 03:33:29;;;;;;;2.17;1.08;;;;;;;4.51;78.56;102043.69;4980501;28;99053;-33
2023/04/26 03:35:54;;;;;;;4.15;1.10;;;;;;;4.54;79.72;102048.97;4978983;28;96833;-30
2023/04/26 03:38:20;;;;;;;2.92;1.58;;;;;;;4.56;79.37;102039.13;4980695;28;96886;-30
2023/04/26 03:40:45;;;;;;;2.08;1.30;;;;;;;4.58;80.32;102042.66;4980345;28;99200;-31
2023/04/26 03:43:10;;;;;;;3.78;1.65;;;;;;;4.59;79.59;102048.91;4980323;28;102620;-30
2023/04/26 03:45:36;;;;;;;4.88;1.90;;;;;;;4.57;80.09;102038.19;4980914;28;96485;-31
2023/04/26 03:48:01;;;;;;;1.77;1.38;;;;;;;4.58;79.63;102048.03;4980824;28;96863;-30
2023/04/26 03:50:26;;;;;;;3.28;1.92;;;;;;;4.58;80.29;102044.47;4980507;28;97817;-30
2023/04/26 03:52:52;;;;;;;3.97;1.35;;;;;;;4.60;80.07;102032.78;4980676;28;97774;-31
2023/04/26 03:55:17;;;;;;;2.42;1.10;;;;;;;4.59;80.21;102039.06;4980659;28;96663;-30
2023/04/26 03:57:42;;;;;;;1.10;0.82;;;;;;;4.63;80.52;102038.09;4978296;28;96971;-30
2023/04/26 04:00:13;;;;;;;3.78;2.53;;;;;;;4.61;80.67;102029.19;4976358;28;99172;-30
2023/04/26 04:02:39;;;;;;;1.42;1.00;;;;;;;4.66;79.93;102031.78;4977149;28;98029;-30
2023/04/26 04:05:04;;;;;;;1.23;0.65;;;;;;;4.63;79.80;102032.72;4975978;28;96658;-30
2023/04/26 04:07:31;;;;;;;1.15;0.70;;;;;;;4.64;80.32;102033.59;4977424;28;96708;-30
2023/04/26 04:09:57;;;;;;;1.63;0.88;;;;;;;4.59;80.80;102031.00;4975306;28;101452;-31
2023/04/26 04:12:23;;;;;;;2.33;1.15;;;;;;;4.63;80.88;102034.53;4975067;28;100975;-30
2023/04/26 04:14:48;;;;;;;1.05;1.02;;;;;;;4.60;79.68;102038.16;4977313;28;96703;-31
2023/04/26 04:17:13;;;;;;;1.75;0.55;;;;;;;4.55;80.32;102034.63;4977617;28;96470;-31
2023/04/26 04:19:39;;;;;;;1.20;0.85;;;;;;;4.55;80.33;102044.50;4976581;28;99706;-30
2023/04/26 04:22:04;;;;;;;1.05;0.73;;;;;;;4.54;79.88;102048.97;4976772;28;97756;-30
2023/04/26 04:24:31;;;;;;;2.10;1.15;;;;;;;4.54;80.66;102053.47;4976676;28;96691;-30
2023/04/26 04:26:56;;;;;;;0.63;0.50;;;;;;;4.53;80.59;102049.00;4975228;28;96828;-31
2023/04/26 04:29:22;;;;;;;4.50;0.88;;;;;;;4.51;80.26;102051.72;4976579;28;97874;-30
2023/04/26 04:31:47;;;;;;;3.67;1.20;;;;;;;4.52;79.95;102052.59;4976204;28;97965;-31
2023/04/26 04:34:12;;;;;;;1.17;1.00;;;;;;;4.51;79.98;102041.00;4976409;28;98797;-31
2023/04/26 04:36:39;;;;;;;1.80;1.30;;;;;;;4.53;79.83;102044.53;4976504;28;96869;-30
2023/04/26 04:39:11;;;;;;;2.78;0.90;;;;;;;4.56;79.93;102048.97;4975041;28;101002;-31
2023/04/26 04:41:36;;;;;;;0.70;0.55;;;;;;;4.57;79.77;102054.28;4976383;28;99433;-30
2023/04/26 04:44:02;;;;;;;1.85;1.17;;;;;;;4.56;80.50;102052.53;4976841;28;96536;-30
2023/04/26 04:46:28;;;;;;;0.98;0.73;;;;;;;4.58;80.36;102049.81;4976730;28;96740;-30
2023/04/26 04:48:53;;;;;;;1.48;0.70;;;;;;;4.60;80.18;102051.56;4975813;28;97997;-30
2023/04/26 04:51:19;;;;;;;1.33;0.98;;;;;;;4.60;80.66;102051.56;4976062;28;99312;-31
2023/04/26 04:53:44;;;;;;;0.80;0.80;;;;;;;4.64;80.16;102047.91;4976124;28;96906;-31
2023/04/26 04:56:09;;;;;;;1.85;1.17;;;;;;;4.61;79.54;102047.97;4976384;28;96745;-30
2023/04/26 04:58:35;;;;;;;1.25;0.88;;;;;;;4.66;79.73;102051.44;4975825;28;99309;-31
2023/04/26 05:01:00;;;;;;;1.27;0.88;;;;;;;4.67;80.46;102055.00;4975931;28;104564;-30
2023/04/26 05:03:25;;;;;;;1.05;0.73;;;;;;;4.74;79.72;102051.31;4976314;28;96649;-30
2023/04/26 05:05:51;;;;;;;1.13;0.73;;;;;;;4.79;80.58;102060.19;4976759;28;96767;-30
2023/04/26 05:08:16;;;;;;;0.88;0.68;;;;;;;4.82;79.74;102054.75;4975957;28;97431;-30
2023/04/26 05:10:41;;;;;;;1.55;1.25;;;;;;;4.85;79.37;102051.13;4975643;28;97758;-30
2023/04/26 05:13:07;;;;;;;1.13;0.70;;;;;;;4.89;79.94;102051.03;4975487;28;96608;-30
2023/04/26 05:15:32;;;;;;;1.98;1.52;;;;;;;4.90;79.19;102039.38;4976203;28;96868;-30
2023/04/26 05:17:58;;;;;;;1.80;1.17;;;;;;;4.96;79.09;102037.47;4975995;28;97915;-31
2023/04/26 05:20:23;;;;;;;1.67;1.00;;;;;;;4.99;78.89;102048.19;4974299;28;100845;-30
2023/04/26 05:22:49;;;;;;;2.85;1.05;;;;;;;5.02;79.29;102050.81;4976079;28;96532;-31
2023/04/26 05:25:15;;;;;;;1.20;1.13;;;;;;;5.05;78.77;102050.75;4976163;28;96813;-30
2023/04/26 05:27:41;;;;;;;4.60;2.00;;;;;;;5.07;79.36;102055.16;4974240;28;101135;-31
2023/04/26 05:30:07;;;;;;;3.45;1.58;;;;;;;5.12;78.84;102057.75;4975710;28;98033;-31
2023/04/26 05:32:32;;;;;;;1.85;1.08;;;;;;;5.18;78.48;102052.28;4974613;28;96692;-31
2023/04/26 05:34:58;;;;;;;2.20;1.35;;;;;;;5.26;78.87;102058.38;4975557;28;96915;-30
2023/04/26 05:37:23;;;;;;;2.45;1.40;;;;;;;5.35;78.60;102059.13;4975046;28;99178;-30
2023/04/26 05:39:49;;;;;;;1.20;1.10;;;;;;;5.43;78.21;102060.72;4975414;28;97814;-30
2023/04/26 05:42:15;;;;;;;1.58;0.95;;;;;;;5.54;77.51;102071.25;4975637;28;96596;-31
2023/04/26 05:44:43;;;;;;;1.20;0.93;;;;;;;5.59;76.92;102068.47;4975655;28;96746;-30
2023/04/26 05:47:08;;;;;;;6.80;1.60;;;;;;;5.62;76.64;102065.72;4975324;28;98036;-30
2023/04/26 05:49:33;;;;;;;1.00;0.90;;;;;;;5.71;76.65;102065.50;4975368;28;97248;-31
2023/04/26 05:51:59;;;;;;;1.60;1.05;;;;;;;5.77;76.22;102070.78;4975803;28;96564;-30
2023/04/26 05:54:25;;;;;;;2.22;1.08;;;;;;;5.85;76.75;102060.72;4975733;28;96762;-30
2023/04/26 05:56:50;;;;;;;5.45;1.20;;;;;;;5.94;76.66;102065.94;4975358;28;97277;-30
2023/04/26 05:59:16;;;;;;;2.90;1.08;;;;;;;5.99;76.89;102073.03;4975504;28;97277;-30
2023/04/26 06:01:41;;;;;;;0.90;0.75;;;;;;;6.02;77.03;102079.19;4975157;28;96528;-30
2023/04/26 06:04:06;;;;;;;1.30;1.00;;;;;;;6.05;77.14;102089.00;4975356;28;96895;-30
2023/04/26 06:06:31;;;;;;;2.22;1.08;;;;;;;6.08;76.73;102076.38;4975232;28;97391;-30
2023/04/26 06:08:57;;;;;;;2.22;1.30;;;;;;;6.16;76.18;102084.25;4974907;28;98936;-30
2023/04/26 06:11:22;;;;;;;3.38;1.52;;;;;;;6.18;75.53;102085.13;4975408;28;96459;-30
2023/04/26 06:13:48;;;;;;;2.92;1.05;;;;;;;6.18;75.58;102079.72;4975274;28;96828;-31
2023/04/26 06:16:13;;;;;;;0.85;0.70;;;;;;;6.21;75.15;102092.22;4975139;28;97399;-31
2023/04/26 06:18:38;;;;;;;2.78;1.30;;;;;;;6.26;74.69;102091.19;4975459;28;97915;-30
2023/04/26 06:21:04;;;;;;;1.00;0.90;;;;;;;6.29;74.60;102101.91;4974707;28;96457;-31
2023/04/26 06:23:29;;;;;;;2.38;0.90;;;;;;;6.34;74.27;102101.75;4975008;28;96771;-30
2023/04/26 06:25:55;;;;;;;1.92;0.90;;;;;;;6.41;74.77;102098.00;4974316;28;99282;-30
2023/04/26 06:28:20;;;;;;;3.05;1.10;;;;;;;6.44;73.92;102097.94;4974917;28;97229;-30
2023/04/26 06:30:45;;;;;;;1.20;0.65;;;;;;;6.54;73.97;102104.88;4975301;28;96742;-30
2023/04/26 06:33:11;;;;;;;2.25;0.98;;;;;;;6.58;74.27;102103.00;4975214;28;96764;-30
2023/04/26 06:35:40;;;;;;;3.67;1.30;;;;;;;6.62;73.04;102101.09;4974291;28;97879;-31
2023/04/26 06:38:05;;;;;;;0.90;0.70;;;;;;;6.64;73.50;102099.25;4974490;28;99175;-30
2023/04/26 06:40:31;;;;;;;1.70;0.77;;;;;;;6.65;72.51;102096.53;4975261;28;96422;-32
2023/04/26 06:42:56;;;;;;;1.58;0.68;;;;;;;6.67;72.29;102099.19;4975296;28;96897;-30
2023/04/26 06:45:22;;;;;;;1.10;0.68;;;;;;;6.69;71.78;102094.66;4974782;28;97962;-30
2023/04/26 06:47:50;;;;;;;1.75;0.93;;;;;;;6.77;72.27;102095.34;4974485;28;99105;-30
2023/04/26 06:50:15;;;;;;;1.27;0.98;;;;;;;6.83;72.38;102092.47;4973069;28;96590;-30
2023/04/26 06:52:41;;;;;;;4.22;0.75;;;;;;;6.92;72.03;102094.06;4974561;28;96767;-30
2023/04/26 06:55:07;;;;;;;0.80;0.50;;;;;;;6.99;71.71;102087.59;4974427;28;99307;-30
2023/04/26 06:57:32;;;;;;;0.45;0.38;;;;;;;7.08;71.42;102087.34;4973161;28;100922;-30
2023/04/26 06:59:58;;;;;;;0.70;0.60;;;;;;;7.19;70.43;102090.59;4974684;28;96653;-30
2023/04/26 07:02:23;;;;;;;0.47;0.25;;;;;;;7.16;70.33;102088.00;4974947;28;96847;-30
2023/04/26 07:04:49;;;;;;;0.20;0.20;;;;;;;7.14;70.22;102100.63;4974205;28;99320;-30
2023/04/26 07:07:15;;;;;;;0.45;0.32;;;;;;;7.13;69.96;102093.50;4974493;28;99347;-30
2023/04/26 07:09:41;;;;;;;0.47;0.25;;;;;;;7.14;70.19;102099.75;4973260;28;96521;-30
2023/04/26 07:12:06;;;;;;;0.28;0.10;;;;;;;7.15;69.93;102090.72;4974614;28;96885;-30
2023/04/26 07:14:32;;;;;;;0.75;0.45;;;;;;;7.25;69.31;102099.47;4974004;28;97718;-30
2023/04/26 07:16:57;;;;;;;0.28;0.25;;;;;;;7.62;69.10;102089.38;4974140;28;99120;-30
2023/04/26 07:19:22;;;;;;;0.47;0.28;;;;;;;7.75;68.22;102087.22;4974958;28;96581;-31
2023/04/26 07:21:48;;;;;;;0.25;0.17;;;;;;;7.81;67.48;102075.38;4984877;28;97580;-32
2023/04/26 07:24:13;;;;;;;0.30;0.30;;;;;;;7.88;67.26;102082.34;4993576;28;99512;-30
2023/04/26 07:26:40;;;;;;;0.43;0.30;;;;;;;7.92;67.70;102089.41;4994100;28;97748;-30
2023/04/26 07:29:05;;;;;;;0.32;0.30;;;;;;;7.92;67.02;102089.41;4992971;28;96707;-29
2023/04/26 07:31:31;;;;;;;0.40;0.13;;;;;;;8.02;67.10;102090.88;4994388;28;96681;-30
2023/04/26 07:33:56;;;;;;;0.65;0.50;;;;;;;8.13;66.61;102090.56;4995383;28;97341;-30
2023/04/26 07:36:22;;;;;;;0.38;0.32;;;;;;;8.20;66.46;102096.63;4995918;28;100820;-31
2023/04/26 07:38:47;;;;;;;4.03;0.30;;;;;;;8.17;66.44;102102.13;4997179;28;96583;-32
2023/04/26 07:41:15;;;;;;;0.30;0.30;;;;;;;8.13;66.09;102106.75;4997798;28;96924;-30
2023/04/26 07:43:40;;;;;;;0.43;0.40;;;;;;;8.08;66.90;102103.34;4997069;28;99392;-30
2023/04/26 07:46:05;;;;;;;0.25;0.25;;;;;;;8.10;65.96;102098.75;4996944;28;99137;-30
2023/04/26 07:48:31;;;;;;;0.10;0.10;;;;;;;8.21;64.97;102101.13;4997529;28;96556;-30
2023/04/26 07:50:56;;;;;;;0.85;0.40;;;;;;;8.38;65.01;102103.28;4997449;28;96750;-30
2023/04/26 07:53:22;;;;;;;0.20;0.20;;;;;;;8.42;64.13;102105.00;4996698;28;97867;-30
2023/04/26 07:55:50;;;;;;;1.13;0.65;;;;;;;8.36;64.14;102103.31;4997439;28;97753;-30
2023/04/26 07:58:15;;;;;;;0.25;0.22;;;;;;;8.32;64.13;102112.47;4996028;28;96545;-32
2023/04/26 08:00:40;;;;;;;0.68;0.38;;;;;;;8.26;65.27;102107.25;4997465;28;96633;-30
2023/04/26 08:03:07;;;;;;;0.35;0.25;;;;;;;8.22;64.98;102109.19;4996481;28;97883;-30
2023/04/26 08:05:32;;;;;;;0.85;0.40;;;;;;;8.17;65.64;102113.81;4996704;28;99185;-30
2023/04/26 08:07:59;;;;;;;0.35;0.25;;;;;;;8.12;65.28;102117.59;4996912;28;96608;-30
2023/04/26 08:10:25;;;;;;;0.43;0.40;;;;;;;8.06;65.48;102116.84;4997230;28;96813;-30
2023/04/26 08:12:50;;;;;;;1.95;0.40;;;;;;;8.00;65.99;102113.47;4996493;28;99189;-31
2023/04/26 08:15:15;;;;;;;0.32;0.28;;;;;;;7.95;66.68;102110.03;4996808;28;97918;-30
2023/04/26 08:17:41;;;;;;;2.55;0.30;;;;;;;7.96;66.74;102119.88;4997204;28;96457;-32
2023/04/26 08:20:08;;;;;;;2.15;0.47;;;;;;;7.90;66.60;102107.47;4997166;28;96584;-30
2023/04/26 08:22:33;;;;;;;0.40;0.40;;;;;;;7.85;66.47;102122.91;4995177;28;100880;-30
2023/04/26 08:24:59;;;;;;;0.55;0.45;;;;;;;7.88;65.96;102125.50;4996893;28;96839;-30
2023/04/26 08:27:24;;;;;;;0.20;0.20;;;;;;;7.89;66.31;102124.59;4996152;28;96453;-31
2023/04/26 08:29:50;;;;;;;4.70;0.68;;;;;;;7.86;66.05;102124.66;4995168;28;96874;-30
2023/04/26 08:32:15;;;;;;;0.25;0.25;;;;;;;7.82;65.57;102121.19;4995415;28;97326;-30
2023/04/26 08:34:40;;;;;;;0.93;0.38;;;;;;;7.83;66.39;102122.06;4995984;28;97259;-34
2023/04/26 08:37:06;;;;;;;1.80;0.50;;;;;;;7.90;65.98;102122.78;4996478;28;96586;-30
2023/04/26 08:39:33;;;;;;;0.65;0.32;;;;;;;7.94;65.98;102121.75;4996721;28;96812;-31
2023/04/26 08:42:07;;;;;;;0.35;0.22;;;;;;;7.98;66.04;102116.19;4996412;28;97362;-32
2023/04/26 08:44:34;;;;;;;0.65;0.45;;;;;;;8.02;64.98;102112.47;4994631;28;100768;-31
2023/04/26 08:47:12;;;;;;;0.22;0.20;;;;;;;8.00;65.08;102103.53;4995235;28;96617;-31
2023/04/26 08:49:43;;;;;;;4.68;0.50;;;;;;;8.06;64.53;102099.78;4995194;28;96761;-30
2023/04/26 08:52:13;;;;;;;0.87;0.23;;;;;;;8.08;65.13;102101.50;4994205;28;99534;-31
2023/04/26 08:54:39;;;;;;;0.20;0.20;;;;;;;8.14;64.86;102099.53;4995962;28;98458;-31
2023/04/26 08:57:06;;;;;;;0.63;0.30;;;;;;;8.20;64.13;102111.03;4996491;28;96590;-30
2023/04/26 08:59:36;;;;;;;0.98;0.57;;;;;;;8.29;64.47;102112.53;4994885;28;96936;-30
2023/04/26 09:02:04;;;;;;;2.38;0.30;;;;;;;8.29;63.66;102120.66;4994595;28;101406;-31
2023/04/26 09:04:30;;;;;;;0.32;0.28;;;;;;;8.24;63.72;102117.22;4994667;28;100845;-30
2023/04/26 09:06:59;;;;;;;0.85;0.45;;;;;;;8.26;63.87;102115.34;4994875;28;96545;-30
2023/04/26 09:09:26;;;;;;;0.52;0.20;;;;;;;8.21;63.50;102110.09;4994991;28;96897;-30
2023/04/26 09:11:56;;;;;;;1.25;0.43;;;;;;;8.22;62.87;102110.97;4994387;28;99983;-31
2023/04/26 09:14:23;;;;;;;0.20;0.10;;;;;;;8.20;63.53;102119.13;4994599;28;97927;-32
2023/04/26 09:16:48;;;;;;;0.73;0.30;;;;;;;8.21;64.13;102115.50;4991645;28;96754;-30
2023/04/26 09:19:13;;;;;;;0.32;0.30;;;;;;;8.23;63.88;102107.34;4992638;28;97316;-30
2023/04/26 09:21:44;;;;;;;0.20;0.20;;;;;;;8.24;62.88;102120.78;4993881;28;99192;-31
2023/04/26 09:24:10;;;;;;;0.88;0.47;;;;;;;8.24;63.58;102114.50;4992625;28;100760;-30
2023/04/26 09:26:36;;;;;;;0.40;0.22;;;;;;;8.25;62.69;102114.47;4993819;28;97119;-30
2023/04/26 09:29:13;;;;;;;0.20;0.20;;;;;;;8.24;63.40;102111.81;4992548;28;96846;-30
2023/04/26 09:31:40;;;;;;;5.85;0.52;;;;;;;8.29;63.76;102115.25;4993774;28;103235;-31
2023/04/26 09:34:07;;;;;;;0.25;0.25;;;;;;;8.27;63.68;102109.91;4993700;28;100366;-32
2023/04/26 09:36:46;;;;;;;0.43;0.30;;;;;;;8.36;63.03;102105.13;4994251;28;96523;-31
2023/04/26 09:39:11;;;;;;;0.10;0.10;;;;;;;8.40;63.33;102106.84;4994240;28;96689;-32
2023/04/26 09:41:43;;;;;;;0.95;0.55;;;;;;;8.51;63.27;102107.41;4994492;28;99192;-30
2023/04/26 09:44:22;;;;;;;0.77;0.55;;;;;;;8.56;63.50;102107.25;4993880;28;100925;-32
2023/04/26 09:47:01;;;;;;;0.70;0.43;;;;;;;8.68;61.51;102106.84;4993248;28;96697;-30
2023/04/26 09:49:50;;;;;;;1.15;0.38;;;;;;;8.79;62.00;102112.75;4991644;28;97378;-31
2023/04/26 09:52:19;;;;;;;0.20;0.20;;;;;;;8.95;62.79;102110.41;4992633;28;99259;-34
2023/04/26 09:54:45;;;;;;;0.15;0.15;;;;;;;9.13;61.45;102106.19;4993055;28;97940;-34
2023/04/26 09:57:12;;;;;;;0.30;0.20;;;;;;;9.24;61.19;102106.69;4990609;28;97828;-31
2023/04/26 09:59:42;;;;;;;2.10;0.77;;;;;;;9.31;60.28;102102.81;4992036;28;97067;-32
2023/04/26 10:02:26;;;;;;;4.32;0.60;;;;;;;9.40;60.53;102107.00;4992015;28;100932;-30
2023/04/26 10:04:54;;;;;;;0.20;0.10;;;;;;;9.37;60.51;102115.25;4993713;28;100955;-30
2023/04/26 10:07:24;;;;;;;1.75;0.52;;;;;;;9.32;61.01;102111.84;4995105;28;96732;-31
2023/04/26 10:09:50;;;;;;;0.10;0.10;;;;;;;9.33;61.50;102113.59;4994945;28;96761;-30
2023/04/26 10:12:18;;;;;;;0.52;0.50;;;;;;;9.34;61.03;102112.63;4993427;28;100760;-30
2023/04/26 10:14:45;;;;;;;0.95;0.50;;;;;;;9.35;61.94;102107.19;4993322;28;100949;-31
2023/04/26 10:17:11;;;;;;;3.13;0.40;;;;;;;9.30;61.77;102105.59;4995053;28;96559;-30
2023/04/26 10:19:39;;;;;;;1.10;0.52;;;;;;;9.29;62.01;102112.78;4993722;28;96853;-30
2023/04/26 10:22:09;;;;;;;0.93;0.38;;;;;;;9.27;61.78;102105.69;4993434;28;100937;-31
2023/04/26 10:24:35;;;;;;;2.20;0.55;;;;;;;9.27;62.39;102105.69;4993762;28;100761;-30
2023/04/26 10:27:03;;;;;;;0.40;0.35;;;;;;;9.28;61.74;102112.88;4993769;28;96536;-30
2023/04/26 10:29:53;;;;;;;2.17;0.50;;;;;;;9.29;61.30;102123.59;4993263;28;96781;-31
2023/04/26 10:32:19;;;;;;;0.40;0.40;;;;;;;9.31;61.36;102119.03;4994088;28;99392;-30
2023/04/26 10:35:11;;;;;;;2.63;0.50;;;;;;;9.29;61.47;102117.31;4992702;28;100869;-30
2023/04/26 10:37:56;;;;;;;0.52;0.30;;;;;;;9.31;62.25;102120.88;4994966;28;96431;-30
2023/04/26 10:40:24;;;;;;;0.60;0.25;;;;;;;9.23;61.19;102117.56;4994257;28;96607;-32
2023/04/26 10:42:50;;;;;;;0.22;0.22;;;;;;;9.30;61.89;102122.69;4992992;28;100894;-31
2023/04/26 10:45:26;;;;;;;0.20;0.20;;;;;;;9.38;61.02;102110.72;4994432;28;97878;-32
2023/04/26 10:48:16;;;;;;;0.50;0.32;;;;;;;9.45;59.99;102109.56;4993423;28;96625;-31
2023/04/26 10:51:12;;;;;;;0.57;0.40;;;;;;;9.53;59.57;102100.22;4995038;28;96757;-30
2023/04/26 10:53:43;;;;;;;1.52;0.60;;;;;;;9.63;58.88;102094.44;4992817;28;101193;-31
2023/04/26 10:56:08;;;;;;;0.47;0.35;;;;;;;9.67;59.81;102088.88;4994548;28;97259;-30
2023/04/26 10:58:34;;;;;;;1.35;0.50;;;;;;;9.75;59.42;102081.34;4994033;28;96907;-31
2023/04/26 11:01:03;;;;;;;0.20;0.20;;;;;;;9.92;58.29;102080.69;4993079;28;96883;-30
2023/04/26 11:03:29;;;;;;;0.77;0.35;;;;;;;10.20;57.95;102083.22;4992899;28;100735;-31
2023/04/26 11:05:55;;;;;;;0.82;0.45;;;;;;;10.40;58.08;102079.72;4992790;28;102013;-31
2023/04/26 11:08:30;;;;;;;1.00;0.80;;;;;;;10.61;58.57;102077.94;4995612;28;96591;-30
2023/04/26 11:11:02;;;;;;;0.77;0.50;;;;;;;11.00;56.16;102079.88;4996610;28;96865;-31
2023/04/26 11:13:38;;;;;;;0.90;0.65;;;;;;;11.47;55.12;102079.59;4997471;28;99396;-32
2023/04/26 11:16:15;;;;;;;0.50;0.30;;;;;;;11.68;54.92;102071.44;4996647;28;101148;-30
2023/04/26 11:18:45;;;;;;;4.85;0.55;;;;;;;11.55;53.99;102075.66;4998066;28;96716;-30
2023/04/26 11:21:11;;;;;;;0.82;0.55;;;;;;;11.41;53.67;102077.16;4996630;28;96868;-32
2023/04/26 11:23:37;;;;;;;2.80;0.45;;;;;;;11.45;54.55;102070.66;4995265;28;100917;-31
2023/04/26 11:26:05;;;;;;;0.68;0.38;;;;;;;11.78;55.25;102061.03;4996096;28;99527;-31
2023/04/26 11:28:31;;;;;;;0.60;0.30;;;;;;;11.95;54.89;102065.69;4996375;28;96699;-31
2023/04/26 11:30:57;;;;;;;1.92;0.30;;;;;;;12.04;53.06;102063.41;4996120;28;96979;-31